Details From LDDU - DUBROVNIK
To LDSP - SPLIT
Flight Number -
Tags generated
Created
Modified
Stats Distance 104 nm / 193 km
Max Altitude 12,500 ft / 3,810 m
Waypoints 4
Social Downloads 0
Likes 0
Share VATSIM

Download

Looking for another format? Having issues loading an existing format? Contact us
Advertisement - Login to hide

Notes

Basic altitude profile: - Ascent Rate: 2500ft/min - Ascent Speed: 250kts - Cruise Altitude: 35000ft - Cruise Speed: 420kts - Descent Rate: 1500ft/min - Descent Speed: 250kts Options: - Use NATs: yes - Use PACOTS: yes - Use low airways: yes - Use high airways: no

Route

LDDU NERRA L607 SIPAL LDSP

ID Type Via Altitude Latitude Longitude Leg Dist Tot Dist Heading (true) Name
O LDDU APT - 0 ft / 0 m 42.56284˚ 18.26450˚ - 0 nm - DUBROVNIK
NERRA FIX - 12,500 ft / 3,810 m 42.90528˚ 17.54333˚ 37 nm 37 nm 303° / 303° -
SIPAL FIX L607 (AWY-LO) 8,900 ft / 2,713 m 43.13667˚ 17.07361˚ 24 nm 62 nm 304° / 304° -
O LDSP APT - 0 ft / 0 m 43.53903˚ 16.29811˚ 41 nm 104 nm 306° / 305° SPLIT

Altitude Profile

Advertisement - Login to hide

LDDU

Details ICAO LDDU (DBV)
Name DUBROVNIK
Region Croatia
Timezone Europe/Zagreb (UTC+1.0)
Stats Elevation 527 ft / 161 m (AMSL)
Location 42.562840° 18.264499°
Runways 1
Magnetic Variation 4.100° E

METAR

LDDU 151430Z 14015KT 110V190 8000 -RA SCT012 BKN016 OVC038 13/13 Q1006 TEMPO 12015G25KT

Decode

TAF

TAF TAF LDDU 151125Z 1512/1612 12012KT 9999 SCT015 BKN030 TX15/1512Z TN11/1605Z TEMPO 1512/1609 4000 RA SCT005 BKN010 PROB30 TEMPO 1512/1602 12015G25KT PROB40 TEMPO 1521/1606 3000 TSRA FEW020CB BKN025 BECMG 1603/1605 27008KT

Decode

Departure Runways

ID Width Length Bearing (true) Bearing (mag) Surface Threshold Offset Overrun Length
12 148 ft / 45 m 10,803 ft / 3,293 m 118.30° 114.20° Asphalt 488 ft / 149 m 100 ft / 30 m
30 148 ft / 45 m 10,803 ft / 3,293 m 298.33° 294.23° Asphalt 0 ft / 0 m 100 ft / 30 m

LDSP

Details ICAO LDSP (SPU)
Name SPLIT
Region Croatia
Timezone Europe/Zagreb (UTC+1.0)
Stats Elevation 79 ft / 24 m (AMSL)
Location 43.539026° 16.298112°
Runways 1
Magnetic Variation 3.837° E

METAR

LDSP 151430Z 16015KT 9999 -RA FEW020 BKN040 15/12 Q1000 NOSIG

Decode

TAF

TAF LDSP 151125Z 1512/1612 12012KT 9999 FEW020 BKN030 TX16/1512Z TN07/1603Z TEMPO 1512/1604 4000 RA PROB30 TEMPO 1518/1602 3000 TSRA FEW020CB BKN025 BECMG 1523/1601 34008KT PROB30 TEMPO 1609/1612 SHRA FEW020TCU BKN025

Decode

Destination Runways

ID Width Length Bearing (true) Bearing (mag) Surface Threshold Offset Overrun Length
05 148 ft / 45 m 8,357 ft / 2,547 m 52.48° 48.64° Asphalt 0 ft / 0 m 76 ft / 23 m
23 148 ft / 45 m 8,357 ft / 2,547 m 232.50° 228.66° Asphalt 525 ft / 160 m 820 ft / 250 m

Approach Navaids

Runway Type Ident Frequency Range Bearing (true) Bearing (mag) Slope Elevation
05 Localiser IST 110.50 MHz 25 nm / 46 km 52.57° 48.73° - 69 ft / 21 m (AMSL)
05 Glidescope IST 110.50 MHz 25 nm / 46 km 52.57° 48.73° 3.00° 52 ft / 16 m (AMSL)

Popular Alternatives